createdAt,value
2018-05-31T00:01:05.664Z,78.76
2018-05-31T00:03:33.128Z,81.51
2018-05-31T00:06:00.953Z,81.81
2018-05-31T00:08:28.408Z,81.65
2018-05-31T00:10:55.871Z,80.70
2018-05-31T00:13:23.361Z,80.98
2018-05-31T00:15:50.824Z,81.65
2018-05-31T00:18:18.493Z,80.83
2018-05-31T00:20:45.956Z,79.78
2018-05-31T00:23:13.411Z,78.99
2018-05-31T00:25:40.917Z,76.92
2018-05-31T00:28:08.407Z,74.03
2018-05-31T00:30:36.003Z,71.94
2018-05-31T00:33:03.468Z,70.18
2018-05-31T00:35:30.939Z,70.96
2018-05-31T00:37:58.425Z,70.68
2018-05-31T00:40:25.891Z,70.57
2018-05-31T00:42:53.395Z,70.47
2018-05-31T00:45:20.849Z,68.41
2018-05-31T00:47:48.308Z,67.43
2018-05-31T00:50:15.787Z,68.26
2018-05-31T00:52:43.251Z,68.01
2018-05-31T00:55:10.907Z,67.71
2018-05-31T00:57:38.368Z,68.37
2018-05-31T01:00:05.840Z,68.59
2018-05-31T01:02:33.320Z,69.16
2018-05-31T01:05:00.772Z,68.80
2018-05-31T01:07:28.460Z,67.66
2018-05-31T01:09:55.922Z,67.76
2018-05-31T01:12:23.456Z,68.20
2018-05-31T01:14:50.940Z,68.17
2018-05-31T01:17:18.404Z,68.38
2018-05-31T01:19:45.899Z,69.86
2018-05-31T01:22:13.371Z,68.34
2018-05-31T01:24:40.851Z,69.27
2018-05-31T01:27:08.361Z,70.10
2018-05-31T01:29:35.824Z,68.70
2018-05-31T01:32:03.359Z,69.43
2018-05-31T01:34:30.772Z,69.02
2018-05-31T01:36:58.239Z,69.70
2018-05-31T01:39:25.720Z,69.28
2018-05-31T01:41:53.179Z,69.49
2018-05-31T01:44:20.679Z,70.55
2018-05-31T01:46:48.161Z,70.73
2018-05-31T01:49:15.780Z,70.78
2018-05-31T01:51:43.239Z,70.46
2018-05-31T01:54:10.704Z,69.73
2018-05-31T01:56:38.179Z,69.01
2018-05-31T01:59:05.655Z,69.26
2018-05-31T02:01:33.310Z,68.87
2018-05-31T02:04:00.795Z,69.30
2018-05-31T02:06:28.256Z,67.99
2018-05-31T02:08:55.756Z,68.81
2018-05-31T02:11:23.216Z,68.87
2018-05-31T02:13:50.864Z,68.93
2018-05-31T02:16:18.317Z,69.48
2018-05-31T02:18:45.788Z,69.22
2018-05-31T02:21:13.288Z,68.29
2018-05-31T02:23:40.748Z,67.50
2018-05-31T02:26:08.391Z,68.46
2018-05-31T02:28:35.871Z,68.28
2018-05-31T02:31:03.335Z,68.41
2018-05-31T02:33:30.816Z,69.01
2018-05-31T02:35:58.280Z,68.90
2018-05-31T02:38:25.769Z,69.70
2018-05-31T02:40:53.243Z,68.53
2018-05-31T02:43:20.692Z,69.39
2018-05-31T02:45:48.171Z,68.19
2018-05-31T02:48:15.631Z,68.70
2018-05-31T02:50:43.313Z,69.16
2018-05-31T02:53:10.763Z,67.01
2018-05-31T02:55:38.227Z,65.81
2018-05-31T02:58:05.716Z,65.74
2018-05-31T03:00:33.180Z,65.37
2018-05-31T03:03:00.968Z,65.48
2018-05-31T03:05:28.432Z,65.40
2018-05-31T03:07:55.912Z,66.37
2018-05-31T03:10:23.391Z,65.88
2018-05-31T03:12:50.859Z,66.11
2018-05-31T03:15:18.644Z,68.28
2018-05-31T03:17:46.107Z,69.45
2018-05-31T03:20:13.603Z,69.82
2018-05-31T03:22:41.085Z,70.10
2018-05-31T03:25:08.562Z,70.53
2018-05-31T03:27:36.485Z,71.07
2018-05-31T03:30:03.940Z,71.81
2018-05-31T03:32:31.419Z,70.96
2018-05-31T03:34:58.914Z,70.86
2018-05-31T03:37:28.211Z,71.06
2018-05-31T03:39:55.890Z,72.00
2018-05-31T03:42:23.371Z,72.31
2018-05-31T03:44:50.828Z,72.32
2018-05-31T03:47:18.333Z,73.53
2018-05-31T03:49:45.838Z,74.14
2018-05-31T03:52:13.459Z,74.19
2018-05-31T03:54:40.963Z,77.87
2018-05-31T03:57:08.431Z,76.75
2018-05-31T03:59:35.912Z,76.34
2018-05-31T04:02:03.382Z,76.00
2018-05-31T04:04:31.095Z,76.43
2018-05-31T04:06:58.551Z,75.85
2018-05-31T04:09:26.863Z,75.58
2018-05-31T04:11:54.371Z,75.62
2018-05-31T04:14:21.835Z,76.24
2018-05-31T04:16:49.571Z,75.95
2018-05-31T04:19:17.032Z,75.69
2018-05-31T04:21:44.486Z,74.89
2018-05-31T04:24:11.975Z,74.34
2018-05-31T04:26:39.439Z,75.07
2018-05-31T04:29:07.312Z,74.71
2018-05-31T04:31:34.767Z,75.53
2018-05-31T04:34:02.224Z,76.08
2018-05-31T04:36:29.727Z,74.33
2018-05-31T04:38:57.203Z,74.08
2018-05-31T04:41:24.897Z,72.86
2018-05-31T04:43:52.356Z,69.88
2018-05-31T04:46:19.818Z,66.67
2018-05-31T04:48:47.315Z,65.74
2018-05-31T04:51:14.798Z,65.65
2018-05-31T04:53:42.428Z,65.64
2018-05-31T04:56:09.883Z,65.51
2018-05-31T04:58:37.356Z,64.79
2018-05-31T05:01:04.827Z,64.21
2018-05-31T05:03:32.305Z,62.85
2018-05-31T05:06:00.088Z,61.89
2018-05-31T05:08:27.543Z,60.72
2018-05-31T05:10:55.012Z,60.14
2018-05-31T05:13:22.479Z,61.38
2018-05-31T05:15:49.944Z,58.78
2018-05-31T05:18:17.492Z,58.01
2018-05-31T05:20:44.940Z,57.63
2018-05-31T05:23:12.404Z,56.60
2018-05-31T05:25:39.875Z,56.07
2018-05-31T05:28:07.330Z,55.81
2018-05-31T05:30:34.901Z,58.07
2018-05-31T05:33:02.362Z,57.34
2018-05-31T05:35:29.819Z,57.38
2018-05-31T05:37:57.303Z,58.54
2018-05-31T05:40:24.763Z,57.65
2018-05-31T05:42:52.244Z,59.42
2018-05-31T05:45:19.695Z,57.73
2018-05-31T05:47:47.152Z,56.85
2018-05-31T05:50:14.655Z,56.98
2018-05-31T05:52:42.091Z,56.12
2018-05-31T05:55:09.584Z,56.65
2018-05-31T05:57:37.052Z,55.76
2018-05-31T06:00:04.521Z,55.12
2018-05-31T06:02:31.999Z,56.03
2018-05-31T06:04:59.520Z,56.34
2018-05-31T06:07:27.015Z,56.96
2018-05-31T06:09:54.505Z,55.15
2018-05-31T06:12:21.939Z,54.49
2018-05-31T06:14:49.415Z,55.51
2018-05-31T06:17:16.869Z,55.85
2018-05-31T06:19:44.544Z,54.57
2018-05-31T06:22:11.951Z,55.83
2018-05-31T06:24:39.520Z,56.85
2018-05-31T06:27:06.968Z,58.42
2018-05-31T06:29:34.463Z,58.09
2018-05-31T06:32:02.145Z,59.51
2018-05-31T06:34:29.608Z,60.53
2018-05-31T06:36:57.059Z,61.31
2018-05-31T06:39:24.549Z,61.37
2018-05-31T06:41:52.007Z,61.58
2018-05-31T06:44:19.483Z,61.93
2018-05-31T06:46:46.972Z,61.76
2018-05-31T06:49:14.428Z,61.80
2018-05-31T06:51:41.891Z,61.86
2018-05-31T06:54:09.373Z,61.22
2018-05-31T06:56:36.847Z,62.60
2018-05-31T06:59:04.299Z,62.23
2018-05-31T07:01:31.748Z,62.44
2018-05-31T07:03:59.239Z,62.88
2018-05-31T07:06:26.683Z,63.56
2018-05-31T07:08:54.404Z,63.40
2018-05-31T07:11:21.859Z,63.02
2018-05-31T07:13:49.323Z,62.51
2018-05-31T07:16:16.812Z,62.59
2018-05-31T07:18:44.276Z,62.64
2018-05-31T07:21:11.778Z,62.56
2018-05-31T07:23:39.252Z,61.86
2018-05-31T07:26:06.695Z,62.36
2018-05-31T07:28:34.159Z,62.51
2018-05-31T07:31:01.608Z,62.35
2018-05-31T07:33:29.199Z,59.34
2018-05-31T07:35:56.675Z,60.60
2018-05-31T07:38:24.136Z,59.86
2018-05-31T07:40:51.600Z,59.41
2018-05-31T07:43:19.048Z,58.60
2018-05-31T07:45:46.783Z,58.64
2018-05-31T07:48:14.276Z,59.87
2018-05-31T07:50:41.830Z,58.18
2018-05-31T07:53:09.305Z,60.09
2018-05-31T07:55:36.767Z,60.73
2018-05-31T07:58:04.400Z,59.58
2018-05-31T08:00:31.845Z,59.98
2018-05-31T08:02:59.302Z,59.95
2018-05-31T08:05:26.772Z,59.05
2018-05-31T08:07:54.222Z,59.45
2018-05-31T08:10:21.677Z,57.36
2018-05-31T08:12:49.325Z,58.70
2018-05-31T08:15:16.775Z,59.79
2018-05-31T08:17:44.223Z,57.68
2018-05-31T08:20:11.692Z,58.54
2018-05-31T08:22:39.139Z,57.75
2018-05-31T08:25:06.780Z,58.44
2018-05-31T08:27:34.230Z,57.74
2018-05-31T08:30:01.680Z,57.68
2018-05-31T08:32:29.144Z,58.48
2018-05-31T08:34:56.631Z,57.86
2018-05-31T08:37:24.123Z,56.42
2018-05-31T08:39:51.568Z,57.78
2018-05-31T08:42:19.024Z,57.31
2018-05-31T08:44:46.496Z,55.62
2018-05-31T08:47:13.948Z,56.80
2018-05-31T08:49:41.592Z,57.12
2018-05-31T08:52:09.040Z,54.91
2018-05-31T08:54:36.479Z,53.94
2018-05-31T08:57:04.040Z,54.02
2018-05-31T08:59:31.500Z,55.70
2018-05-31T09:01:58.995Z,53.93
2018-05-31T09:04:26.456Z,53.47
2018-05-31T09:06:53.909Z,54.38
2018-05-31T09:09:21.401Z,53.75
2018-05-31T09:11:48.860Z,53.90
2018-05-31T09:14:16.336Z,52.87
2018-05-31T09:16:43.784Z,51.55
2018-05-31T09:19:11.236Z,51.20
2018-05-31T09:21:38.701Z,53.69
2018-05-31T09:24:06.181Z,52.63
2018-05-31T09:26:33.664Z,53.89
2018-05-31T09:29:01.125Z,54.06
2018-05-31T09:31:28.588Z,54.95
2018-05-31T09:33:56.059Z,52.78
2018-05-31T09:36:23.523Z,53.64
2018-05-31T09:38:51.171Z,51.39
2018-05-31T09:41:18.636Z,50.67
2018-05-31T09:43:46.092Z,52.14
2018-05-31T09:46:13.560Z,51.11
2018-05-31T09:48:41.011Z,52.09
2018-05-31T09:51:08.643Z,51.19
2018-05-31T09:53:36.104Z,50.62
2018-05-31T09:56:03.565Z,50.39
2018-05-31T09:58:31.051Z,52.11
2018-05-31T10:00:58.508Z,52.14
2018-05-31T10:03:26.180Z,50.69
2018-05-31T10:05:53.632Z,49.32
2018-05-31T10:08:21.174Z,49.50
2018-05-31T10:10:48.661Z,50.50
2018-05-31T10:13:16.112Z,50.50
2018-05-31T10:15:43.588Z,49.13
2018-05-31T10:18:11.036Z,49.93
2018-05-31T10:20:38.505Z,49.02
2018-05-31T10:23:05.997Z,48.79
2018-05-31T10:25:33.470Z,49.72
2018-05-31T10:28:01.199Z,50.91
2018-05-31T10:30:28.655Z,50.57
2018-05-31T10:32:56.100Z,48.93
2018-05-31T10:35:23.584Z,49.49
2018-05-31T10:37:51.039Z,49.38
2018-05-31T10:40:18.605Z,48.92
2018-05-31T10:42:46.065Z,49.48
2018-05-31T10:45:13.554Z,49.87
2018-05-31T10:47:41.057Z,49.69
2018-05-31T10:50:08.528Z,48.76
2018-05-31T10:52:36.212Z,48.04
2018-05-31T10:55:03.684Z,48.13
2018-05-31T10:57:31.135Z,48.15
2018-05-31T10:59:58.604Z,49.93
2018-05-31T11:02:26.048Z,49.98
2018-05-31T11:04:53.956Z,49.81
2018-05-31T11:07:21.412Z,48.32
2018-05-31T11:09:48.859Z,48.24
2018-05-31T11:12:16.323Z,48.78
2018-05-31T11:14:43.783Z,49.76
2018-05-31T11:17:11.396Z,48.60
2018-05-31T11:19:38.879Z,49.09
2018-05-31T11:22:06.327Z,49.18
2018-05-31T11:24:33.791Z,49.21
2018-05-31T11:27:01.260Z,49.40
2018-05-31T11:29:28.969Z,49.22
2018-05-31T11:31:56.420Z,49.75
2018-05-31T11:34:23.896Z,47.62
2018-05-31T11:36:51.359Z,47.57
2018-05-31T11:39:18.819Z,48.12
2018-05-31T11:41:46.288Z,47.31
2018-05-31T11:44:13.756Z,46.37
2018-05-31T11:46:41.228Z,45.87
2018-05-31T11:49:08.836Z,44.64
2018-05-31T11:51:36.288Z,48.55
2018-05-31T11:54:03.737Z,47.59
2018-05-31T11:56:31.209Z,46.40
2018-05-31T11:58:58.655Z,45.99
2018-05-31T12:01:26.163Z,46.32
2018-05-31T12:03:53.607Z,46.09
2018-05-31T12:06:21.057Z,45.86
2018-05-31T12:08:48.519Z,47.35
2018-05-31T12:11:15.997Z,46.19
2018-05-31T12:13:43.484Z,46.25
2018-05-31T12:16:10.942Z,45.57
2018-05-31T12:18:38.396Z,45.73
2018-05-31T12:21:05.868Z,45.75
2018-05-31T12:23:33.336Z,46.18
2018-05-31T12:26:00.942Z,45.36
2018-05-31T12:28:28.400Z,45.18
2018-05-31T12:30:55.856Z,43.09
2018-05-31T12:33:23.339Z,43.84
2018-05-31T12:35:50.794Z,43.17
2018-05-31T12:38:18.612Z,43.05
2018-05-31T12:40:46.063Z,43.30
2018-05-31T12:43:13.535Z,43.09
2018-05-31T12:45:41.021Z,42.76
2018-05-31T12:48:08.475Z,44.14
2018-05-31T12:50:35.957Z,42.59
2018-05-31T12:53:03.419Z,42.48
2018-05-31T12:55:30.868Z,42.53
2018-05-31T12:57:58.348Z,41.65
2018-05-31T13:00:25.796Z,41.87
2018-05-31T13:02:53.351Z,42.84
2018-05-31T13:05:20.796Z,42.35
2018-05-31T13:07:48.241Z,42.37
2018-05-31T13:10:15.728Z,43.34
2018-05-31T13:12:43.179Z,43.09
2018-05-31T13:15:10.890Z,42.80
2018-05-31T13:17:38.336Z,43.05
2018-05-31T13:20:05.810Z,43.06
2018-05-31T13:22:33.280Z,43.60
2018-05-31T13:25:00.740Z,42.64
2018-05-31T13:27:28.432Z,42.85
2018-05-31T13:29:55.878Z,43.12
2018-05-31T13:32:23.320Z,44.15
2018-05-31T13:34:50.784Z,42.56
2018-05-31T13:37:18.247Z,43.39
2018-05-31T13:39:45.716Z,42.38
2018-05-31T13:42:13.173Z,40.77
2018-05-31T13:44:40.611Z,40.61
2018-05-31T13:47:08.095Z,41.52
2018-05-31T13:49:35.564Z,41.59
2018-05-31T13:52:03.179Z,41.94
2018-05-31T13:54:30.630Z,42.12
2018-05-31T13:56:58.264Z,41.65
2018-05-31T13:59:25.726Z,41.11
2018-05-31T14:01:53.165Z,41.18
2018-05-31T14:04:20.835Z,40.26
2018-05-31T14:06:48.275Z,40.88
2018-05-31T14:09:15.720Z,39.85
2018-05-31T14:11:43.180Z,40.75
2018-05-31T14:14:10.642Z,40.76
2018-05-31T14:16:38.145Z,41.16
2018-05-31T14:19:05.612Z,41.23
2018-05-31T14:21:33.055Z,41.44
2018-05-31T14:24:00.520Z,40.57
2018-05-31T14:26:27.962Z,42.07
2018-05-31T14:28:55.429Z,41.67
2018-05-31T14:31:22.873Z,42.62
2018-05-31T14:33:50.320Z,40.52
2018-05-31T14:36:17.787Z,40.01
2018-05-31T14:38:45.252Z,46.41
2018-05-31T14:41:12.924Z,46.72
2018-05-31T14:43:40.364Z,47.28
2018-05-31T14:46:07.807Z,48.95
2018-05-31T14:48:35.290Z,48.16
2018-05-31T14:51:02.752Z,48.34
2018-05-31T14:53:30.581Z,48.41
2018-05-31T14:55:58.024Z,50.48
2018-05-31T14:58:25.472Z,49.69
2018-05-31T15:00:52.940Z,49.38
2018-05-31T15:03:20.391Z,50.57
2018-05-31T15:05:48.036Z,49.85
2018-05-31T15:08:15.483Z,50.95
2018-05-31T15:10:42.929Z,55.35
2018-05-31T15:13:11.137Z,55.84
2018-05-31T15:15:38.581Z,53.16
2018-05-31T15:18:06.323Z,54.42
2018-05-31T15:20:33.768Z,56.04
2018-05-31T15:23:01.232Z,56.52
2018-05-31T15:25:28.859Z,54.84
2018-05-31T15:27:56.304Z,53.13
2018-05-31T15:30:23.916Z,51.53
2018-05-31T15:32:51.376Z,50.75
2018-05-31T15:35:18.816Z,51.47
2018-05-31T15:37:46.280Z,50.99
2018-05-31T15:40:13.727Z,50.77
2018-05-31T15:42:41.215Z,50.62
2018-05-31T15:45:08.668Z,50.14
2018-05-31T15:47:36.108Z,51.56
2018-05-31T15:50:03.572Z,52.07
2018-05-31T15:52:31.016Z,53.46
2018-05-31T15:54:58.684Z,54.34
2018-05-31T15:57:26.135Z,53.26
2018-05-31T15:59:53.579Z,54.40
2018-05-31T16:02:21.045Z,54.42
2018-05-31T16:04:48.487Z,54.54
2018-05-31T16:07:16.076Z,52.13
2018-05-31T16:09:43.515Z,51.49
2018-05-31T16:12:10.960Z,50.92
2018-05-31T16:14:38.430Z,51.01
2018-05-31T16:17:05.884Z,50.73
2018-05-31T16:19:33.472Z,51.12
2018-05-31T16:22:00.931Z,51.31
2018-05-31T16:24:28.385Z,50.97
2018-05-31T16:26:55.855Z,50.95
2018-05-31T16:29:23.307Z,50.27
2018-05-31T16:31:50.789Z,50.68
2018-05-31T16:34:18.227Z,50.69
2018-05-31T16:36:45.684Z,49.85
2018-05-31T16:39:13.156Z,50.57
2018-05-31T16:41:40.620Z,51.78
2018-05-31T16:44:08.128Z,49.71
2018-05-31T16:46:35.571Z,49.12
2018-05-31T16:49:03.017Z,49.93
2018-05-31T16:51:30.484Z,50.25
2018-05-31T16:53:58.012Z,49.55
2018-05-31T16:56:25.504Z,49.85
2018-05-31T16:58:52.941Z,48.34
2018-05-31T17:01:20.388Z,49.30
2018-05-31T17:03:47.848Z,49.59
2018-05-31T17:06:15.291Z,48.67
2018-05-31T17:08:42.763Z,48.63
2018-05-31T17:11:10.212Z,48.41
2018-05-31T17:13:37.655Z,47.78
2018-05-31T17:16:05.118Z,48.70
2018-05-31T17:18:32.591Z,47.91
2018-05-31T17:21:00.412Z,48.81
2018-05-31T17:23:27.887Z,48.15
2018-05-31T17:25:55.333Z,48.67
2018-05-31T17:28:22.825Z,49.56
2018-05-31T17:30:50.275Z,49.83
2018-05-31T17:33:17.771Z,49.66
2018-05-31T17:35:45.221Z,50.02
2018-05-31T17:38:12.680Z,49.42
2018-05-31T17:40:40.145Z,48.67
2018-05-31T17:43:07.590Z,48.55
2018-05-31T17:45:35.070Z,49.70
2018-05-31T17:48:02.515Z,49.03
2018-05-31T17:50:29.956Z,49.18
2018-05-31T17:52:57.421Z,49.08
2018-05-31T17:55:24.881Z,48.74
2018-05-31T17:57:52.363Z,49.17
2018-05-31T18:00:19.804Z,50.18
2018-05-31T18:02:47.244Z,48.86
2018-05-31T18:05:14.708Z,48.15
2018-05-31T18:07:42.151Z,48.83
2018-05-31T18:10:09.620Z,49.23
2018-05-31T18:12:37.060Z,49.53
2018-05-31T18:15:04.500Z,48.74
2018-05-31T18:17:31.967Z,49.12
2018-05-31T18:19:59.408Z,49.07
2018-05-31T18:22:26.883Z,50.07
2018-05-31T18:24:54.332Z,50.14
2018-05-31T18:27:21.783Z,50.44
2018-05-31T18:29:49.252Z,49.94
2018-05-31T18:32:16.701Z,50.16
2018-05-31T18:34:44.619Z,51.33
2018-05-31T18:37:12.084Z,52.59
2018-05-31T18:39:39.525Z,54.23
2018-05-31T18:42:06.996Z,55.29
2018-05-31T18:44:34.445Z,55.31
2018-05-31T18:47:02.163Z,56.50
2018-05-31T18:49:29.621Z,54.71
2018-05-31T18:51:57.064Z,54.56
2018-05-31T18:54:24.530Z,55.42
2018-05-31T18:56:52.097Z,58.16
2018-05-31T18:59:19.774Z,57.79
2018-05-31T19:01:47.232Z,59.38
2018-05-31T19:04:14.699Z,58.92
2018-05-31T19:06:42.533Z,60.54
2018-05-31T19:09:15.717Z,61.15
2018-05-31T19:11:43.307Z,61.74
2018-05-31T19:14:10.753Z,62.10
2018-05-31T19:16:38.200Z,61.46
2018-05-31T19:19:11.360Z,61.28
2018-05-31T19:21:38.812Z,61.40
2018-05-31T19:24:11.987Z,61.65
2018-05-31T19:26:39.428Z,63.61
2018-05-31T19:29:06.889Z,63.32
2018-05-31T19:31:34.353Z,63.44
2018-05-31T19:34:01.796Z,63.32
2018-05-31T19:36:34.888Z,65.00
2018-05-31T19:39:02.349Z,65.69
2018-05-31T19:41:29.904Z,64.89
2018-05-31T19:44:02.933Z,64.65
2018-05-31T19:46:30.424Z,64.31
2018-05-31T19:48:57.872Z,64.73
2018-05-31T19:51:30.891Z,64.61
2018-05-31T19:53:58.359Z,64.67
2018-05-31T19:56:25.809Z,66.36
2018-05-31T19:58:59.091Z,67.63
2018-05-31T20:01:32.220Z,66.76
2018-05-31T20:03:59.764Z,66.99
2018-05-31T20:06:27.246Z,67.74
2018-05-31T20:08:54.779Z,66.43
2018-05-31T20:11:22.292Z,65.37
2018-05-31T20:16:31.011Z,65.55
2018-05-31T20:18:58.493Z,64.49
2018-05-31T20:21:26.360Z,64.44
2018-05-31T20:23:53.816Z,63.18
2018-05-31T20:26:21.273Z,64.04
2018-05-31T20:28:49.168Z,64.00
2018-05-31T20:31:16.621Z,64.50
2018-05-31T20:33:44.530Z,64.12
2018-05-31T20:36:11.981Z,63.24
2018-05-31T20:38:39.442Z,62.58
2018-05-31T20:41:06.936Z,64.49
2018-05-31T20:43:34.382Z,64.41
2018-05-31T20:46:01.877Z,66.68
2018-05-31T20:48:29.329Z,65.96
2018-05-31T20:50:56.779Z,67.68
2018-05-31T20:53:24.240Z,67.72
2018-05-31T20:55:51.728Z,68.12
2018-05-31T20:58:19.310Z,67.40
2018-05-31T21:00:46.775Z,68.62
2018-05-31T21:03:14.232Z,68.09
2018-05-31T21:05:41.708Z,67.35
2018-05-31T21:08:09.155Z,66.67
2018-05-31T21:10:36.753Z,66.79
2018-05-31T21:13:04.212Z,66.71
2018-05-31T21:15:31.663Z,66.96
2018-05-31T21:17:59.135Z,67.52
2018-05-31T21:20:26.593Z,67.07
2018-05-31T21:22:54.154Z,67.69
2018-05-31T21:25:21.527Z,68.51
2018-05-31T21:27:48.977Z,69.58
2018-05-31T21:30:16.447Z,71.55
2018-05-31T21:32:43.896Z,70.86
2018-05-31T21:35:11.547Z,70.21
2018-05-31T21:37:38.992Z,69.83
2018-05-31T21:40:06.436Z,69.64
2018-05-31T21:42:33.909Z,69.77
2018-05-31T21:45:01.413Z,70.48
2018-05-31T21:47:29.103Z,70.89
2018-05-31T21:49:56.547Z,71.07
2018-05-31T21:52:23.994Z,71.53
2018-05-31T21:54:51.460Z,72.09
2018-05-31T21:57:18.920Z,72.08
2018-05-31T21:59:46.556Z,71.92
2018-05-31T22:02:13.999Z,72.15
2018-05-31T22:04:41.444Z,71.91
2018-05-31T22:07:08.915Z,71.59
2018-05-31T22:09:36.367Z,74.75
2018-05-31T22:12:04.029Z,73.42
2018-05-31T22:14:31.479Z,74.54
2018-05-31T22:16:58.920Z,75.80
2018-05-31T22:19:26.380Z,76.32
2018-05-31T22:21:53.844Z,75.44
2018-05-31T22:24:21.571Z,74.56
2018-05-31T22:26:49.024Z,75.40
2018-05-31T22:29:16.467Z,74.42
2018-05-31T22:31:43.936Z,75.27
2018-05-31T22:34:11.380Z,74.73
2018-05-31T22:36:39.017Z,74.54
2018-05-31T22:39:06.416Z,74.06
2018-05-31T22:41:33.861Z,74.34
2018-05-31T22:44:01.373Z,74.49
2018-05-31T22:46:28.816Z,77.04
2018-05-31T22:48:56.460Z,76.96
2018-05-31T22:51:23.904Z,77.15
2018-05-31T22:53:51.344Z,77.26
2018-05-31T22:56:18.803Z,76.79
2018-05-31T22:58:46.254Z,76.78
2018-05-31T23:01:13.920Z,77.50
2018-05-31T23:03:41.363Z,76.88
2018-05-31T23:06:08.816Z,77.15
2018-05-31T23:08:42.208Z,76.97
2018-05-31T23:11:09.652Z,76.30
2018-05-31T23:13:37.399Z,76.58
2018-05-31T23:16:04.875Z,76.51
2018-05-31T23:18:32.324Z,77.88
2018-05-31T23:20:59.783Z,77.99
2018-05-31T23:23:27.236Z,78.03
2018-05-31T23:25:55.032Z,78.91
2018-05-31T23:28:22.476Z,78.32
2018-05-31T23:30:49.932Z,78.49
2018-05-31T23:33:17.392Z,78.29
2018-05-31T23:35:44.833Z,78.11
2018-05-31T23:38:12.508Z,77.62
2018-05-31T23:40:39.959Z,76.07
2018-05-31T23:43:07.404Z,75.39
2018-05-31T23:45:34.867Z,73.12
2018-05-31T23:48:02.324Z,71.00
2018-05-31T23:50:29.966Z,70.24
2018-05-31T23:52:57.405Z,69.29
2018-05-31T23:55:24.882Z,67.96
2018-05-31T23:57:52.339Z,67.93
